Terminal Aerodrome Forecast
Issued by NWS Sterling, VA

Current Version | Previous Version | Graphics & Text | Print | Product List | Glossary On
Versions: 1 2 3 4 5 6 7 8 9 10 11 12 13 14 15 16 17 18
058
FTUS41 KLWX 251412 AAA
TAFDCA
TAF AMD
KDCA 251412Z 2514/2612 03017G25KT 5SM -RADZ BKN008 OVC015
     FM252100 03010KT 6SM -RA BKN008 OVC015
     FM260300 36006KT P6SM BKN008 OVC015=

USA.gov is the U.S. government's official web portal to all federal, state and local government web resources and services.